Lafalot — LAFALOT — position and weather

sailwx.info

Track history (hours):
 
Tides and Currents Weather Stations Pressure Air Temp Water Temp Dewpoint Dewpoint Depression Visibility Wind Speed Wind Dir Waves Ship Positions

Lafalot

Last reported at 2014-Oct-07 15:16 UTC. Time now 2014-Nov-29 06:15 UTC.
Position N 39°33' W 075°37'.
Warning: this ship's position is 52 days out of date.

Length 13 m.

Type: Sailing vessel. MMSI: 338087469.

Date/timePositionNaut miles runAvg speedWind from/ knotsBaromVisibWave heightAir tempDewpointWater temp
2014-Oct-07 15:16N 39°33' W 075°37'3 4.6
2014-Oct-07 14:33N 39°33' W 075°33'188 4.7
2014-Oct-05 22:30N 40°41' W 071°44'6 5.9
2014-Oct-05 21:30N 40°47' W 071°42'5 4.9
2014-Oct-05 20:33N 40°51' W 071°39'4 4.4
2014-Oct-05 19:33N 40°55' W 071°37'3 3.5
2014-Oct-05 18:33N 40°58' W 071°35'4 4.1
2014-Oct-05 17:33N 41°02' W 071°33'6 5.6
2014-Oct-05 16:33N 41°07' W 071°32'8 7.8
2014-Oct-05 15:33N 41°15' W 071°31'6 6.2
2014-Oct-05 14:33N 41°21' W 071°29'  
Track history (hours):
 
Tides and Currents Weather Stations Pressure Air Temp Water Temp Dewpoint Dewpoint Depression Visibility Wind Speed Wind Dir Waves Ship Positions

Lafalot

Last reported at 2014-Oct-07 15:16 UTC. Time now 2014-Nov-29 06:15 UTC.
Position N 39°33' W 075°37'.
Warning: this ship's position is 52 days out of date.

Length 13 m.

Type: Sailing vessel. MMSI: 338087469.

Date/timePositionNaut miles runAvg speedWind from/ knotsBaromVisibWave heightAir tempDewpointWater temp
2014-Oct-07 15:16N 39°33' W 075°37'3 4.6
2014-Oct-07 14:33N 39°33' W 075°33'188 4.7
2014-Oct-05 22:30N 40°41' W 071°44'6 5.9
2014-Oct-05 21:30N 40°47' W 071°42'5 4.9
2014-Oct-05 20:33N 40°51' W 071°39'4 4.4
2014-Oct-05 19:33N 40°55' W 071°37'3 3.5
2014-Oct-05 18:33N 40°58' W 071°35'4 4.1
2014-Oct-05 17:33N 41°02' W 071°33'6 5.6
2014-Oct-05 16:33N 41°07' W 071°32'8 7.8
2014-Oct-05 15:33N 41°15' W 071°31'6 6.2
2014-Oct-05 14:33N 41°21' W 071°29'  

Dump ship's entire track history